sensor_id;sensor_type;location;lat;lon;timestamp;pressure;altitude;pressure_sealevel;temperature;humidity
79577;BME280;69045;48.136;11.386;2023-10-08T00:01:04;96127.22;;;21.87;31.82
79577;BME280;69045;48.136;11.386;2023-10-08T00:03:33;96131.47;;;21.93;31.47
79577;BME280;69045;48.136;11.386;2023-10-08T00:06:03;96125.34;;;21.92;31.09
79577;BME280;69045;48.136;11.386;2023-10-08T00:08:39;96120.00;;;21.92;31.46
79577;BME280;69045;48.136;11.386;2023-10-08T00:11:07;96112.53;;;21.99;31.52
79577;BME280;69045;48.136;11.386;2023-10-08T00:13:37;96105.88;;;22.02;31.45
79577;BME280;69045;48.136;11.386;2023-10-08T00:16:10;96105.88;;;22.02;31.18
79577;BME280;69045;48.136;11.386;2023-10-08T00:18:43;96094.41;;;21.91;31.71
79577;BME280;69045;48.136;11.386;2023-10-08T00:21:18;96089.34;;;21.90;31.72
79577;BME280;69045;48.136;11.386;2023-10-08T00:23:54;96085.84;;;21.94;31.52
79577;BME280;69045;48.136;11.386;2023-10-08T00:26:26;96087.72;;;21.99;31.73
79577;BME280;69045;48.136;11.386;2023-10-08T00:28:58;96085.84;;;22.04;31.73
79577;BME280;69045;48.136;11.386;2023-10-08T00:31:28;96081.03;;;22.06;31.64
79577;BME280;69045;48.136;11.386;2023-10-08T00:33:59;96084.50;;;22.07;31.47
79577;BME280;69045;48.136;11.386;2023-10-08T00:36:28;96074.91;;;22.11;31.62
79577;BME280;69045;48.136;11.386;2023-10-08T00:38:56;96076.22;;;22.19;31.12
79577;BME280;69045;48.136;11.386;2023-10-08T00:41:27;96069.25;;;22.28;31.01
79577;BME280;69045;48.136;11.386;2023-10-08T00:43:58;96074.31;;;22.34;30.94
79577;BME280;69045;48.136;11.386;2023-10-08T00:46:30;96066.28;;;22.40;30.50
79577;BME280;69045;48.136;11.386;2023-10-08T00:49:02;96071.09;;;22.43;30.96
79577;BME280;69045;48.136;11.386;2023-10-08T00:51:51;96060.34;;;22.53;30.06
79577;BME280;69045;48.136;11.386;2023-10-08T00:54:31;96065.16;;;22.56;30.41
79577;BME280;69045;48.136;11.386;2023-10-08T00:57:04;96060.63;;;22.56;30.36
79577;BME280;69045;48.136;11.386;2023-10-08T00:59:33;96061.66;;;22.60;30.62
79577;BME280;69045;48.136;11.386;2023-10-08T01:02:10;96067.78;;;22.66;30.16
79577;BME280;69045;48.136;11.386;2023-10-08T01:04:42;96061.88;;;22.69;30.39
79577;BME280;69045;48.136;11.386;2023-10-08T01:07:13;96062.94;;;22.73;30.40
79577;BME280;69045;48.136;11.386;2023-10-08T01:09:45;96063.19;;;22.77;30.23
79577;BME280;69045;48.136;11.386;2023-10-08T01:12:18;96073.59;;;22.78;30.19
79577;BME280;69045;48.136;11.386;2023-10-08T01:14:50;96069.06;;;22.79;30.09
79577;BME280;69045;48.136;11.386;2023-10-08T01:17:23;96067.75;;;22.71;29.79
79577;BME280;69045;48.136;11.386;2023-10-08T01:19:52;96070.97;;;22.68;30.10
79577;BME280;69045;48.136;11.386;2023-10-08T01:22:28;96063.50;;;22.65;30.33
79577;BME280;69045;48.136;11.386;2023-10-08T01:24:59;96075.50;;;22.68;30.31
79577;BME280;69045;48.136;11.386;2023-10-08T01:27:30;96071.22;;;22.72;29.98
79577;BME280;69045;48.136;11.386;2023-10-08T01:30:01;96065.59;;;22.73;29.64
79577;BME280;69045;48.136;11.386;2023-10-08T01:32:38;96070.94;;;22.73;29.28
79577;BME280;69045;48.136;11.386;2023-10-08T01:35:08;96056.00;;;22.67;29.49
79577;BME280;69045;48.136;11.386;2023-10-08T01:37:51;96054.41;;;22.66;29.85
79577;BME280;69045;48.136;11.386;2023-10-08T01:40:19;96052.81;;;22.70;29.88
79577;BME280;69045;48.136;11.386;2023-10-08T01:42:50;96055.72;;;22.74;29.72
79577;BME280;69045;48.136;11.386;2023-10-08T01:45:18;96054.91;;;22.78;29.28
79577;BME280;69045;48.136;11.386;2023-10-08T01:47:46;96051.66;;;22.81;29.39
79577;BME280;69045;48.136;11.386;2023-10-08T01:50:18;96049.53;;;22.83;29.42
79577;BME280;69045;48.136;11.386;2023-10-08T01:52:50;96055.13;;;22.82;29.15
79577;BME280;69045;48.136;11.386;2023-10-08T01:55:19;96049.28;;;22.80;28.80
79577;BME280;69045;48.136;11.386;2023-10-08T01:57:50;96049.03;;;22.76;29.01
79577;BME280;69045;48.136;11.386;2023-10-08T02:00:19;96048.78;;;22.73;29.13
79577;BME280;69045;48.136;11.386;2023-10-08T02:02:50;96049.34;;;22.70;29.13
79577;BME280;69045;48.136;11.386;2023-10-08T02:05:18;96053.59;;;22.71;28.89
79577;BME280;69045;48.136;11.386;2023-10-08T02:07:48;96054.69;;;22.65;29.27
79577;BME280;69045;48.136;11.386;2023-10-08T02:10:19;96051.50;;;22.63;29.49
79577;BME280;69045;48.136;11.386;2023-10-08T02:12:48;96049.06;;;22.66;29.52
79577;BME280;69045;48.136;11.386;2023-10-08T02:15:16;96045.84;;;22.69;29.49
79577;BME280;69045;48.136;11.386;2023-10-08T02:17:44;96046.41;;;22.66;29.35
79577;BME280;69045;48.136;11.386;2023-10-08T02:20:13;96042.97;;;22.60;29.34
79577;BME280;69045;48.136;11.386;2023-10-08T02:22:43;96041.38;;;22.59;29.73
79577;BME280;69045;48.136;11.386;2023-10-08T02:25:12;96039.22;;;22.61;29.82
79577;BME280;69045;48.136;11.386;2023-10-08T02:27:41;96035.22;;;22.64;29.71
79577;BME280;69045;48.136;11.386;2023-10-08T02:30:10;96035.22;;;22.64;29.82
79577;BME280;69045;48.136;11.386;2023-10-08T02:32:39;96034.66;;;22.67;29.84
79577;BME280;69045;48.136;11.386;2023-10-08T02:35:10;96034.94;;;22.66;29.58
79577;BME280;69045;48.136;11.386;2023-10-08T02:37:40;96031.75;;;22.64;29.84
79577;BME280;69045;48.136;11.386;2023-10-08T02:40:12;96031.19;;;22.61;30.12
79577;BME280;69045;48.136;11.386;2023-10-08T02:42:48;96030.41;;;22.61;29.70
79577;BME280;69045;48.136;11.386;2023-10-08T02:45:16;96032.53;;;22.64;29.63
79577;BME280;69045;48.136;11.386;2023-10-08T02:47:45;96025.56;;;22.68;29.28
79577;BME280;69045;48.136;11.386;2023-10-08T02:50:13;96021.84;;;22.64;29.38
79577;BME280;69045;48.136;11.386;2023-10-08T02:52:44;96021.00;;;22.69;29.72
79577;BME280;69045;48.136;11.386;2023-10-08T02:55:12;96025.00;;;22.71;29.77
79577;BME280;69045;48.136;11.386;2023-10-08T02:57:54;96020.47;;;22.72;29.33
79577;BME280;69045;48.136;11.386;2023-10-08T03:00:23;96015.63;;;22.74;29.10
79577;BME280;69045;48.136;11.386;2023-10-08T03:02:57;96021.25;;;22.72;29.17
79577;BME280;69045;48.136;11.386;2023-10-08T03:05:28;96026.03;;;22.75;29.25
79577;BME280;69045;48.136;11.386;2023-10-08T03:07:58;96019.38;;;22.78;29.13
79577;BME280;69045;48.136;11.386;2023-10-08T03:10:27;96022.31;;;22.76;29.49
79577;BME280;69045;48.136;11.386;2023-10-08T03:13:01;96019.38;;;22.78;29.16
79577;BME280;69045;48.136;11.386;2023-10-08T03:15:32;96011.34;;;22.78;29.53
79577;BME280;69045;48.136;11.386;2023-10-08T03:18:14;96007.31;;;22.80;29.32
79577;BME280;69045;48.136;11.386;2023-10-08T03:20:42;96007.59;;;22.79;29.58
79577;BME280;69045;48.136;11.386;2023-10-08T03:23:13;96010.28;;;22.79;29.48
79577;BME280;69045;48.136;11.386;2023-10-08T03:25:53;96004.41;;;22.77;29.39
79577;BME280;69045;48.136;11.386;2023-10-08T03:28:27;95999.63;;;22.74;29.16
79577;BME280;69045;48.136;11.386;2023-10-08T03:30:56;96002.84;;;22.71;29.35
79577;BME280;69045;48.136;11.386;2023-10-08T03:33:33;95997.19;;;22.77;29.41
79577;BME280;69045;48.136;11.386;2023-10-08T03:36:03;95999.81;;;22.82;29.41
79577;BME280;69045;48.136;11.386;2023-10-08T03:38:41;95997.16;;;22.87;29.41
79577;BME280;69045;48.136;11.386;2023-10-08T03:41:22;96001.97;;;22.91;29.34
79577;BME280;69045;48.136;11.386;2023-10-08T03:43:57;95997.69;;;22.90;29.27
79577;BME280;69045;48.136;11.386;2023-10-08T03:46:29;95999.28;;;22.91;29.57
79577;BME280;69045;48.136;11.386;2023-10-08T03:48:58;95994.44;;;22.93;29.28
79577;BME280;69045;48.136;11.386;2023-10-08T03:51:31;95998.69;;;22.99;29.33
79577;BME280;69045;48.136;11.386;2023-10-08T03:54:06;95993.06;;;23.00;29.53
79577;BME280;69045;48.136;11.386;2023-10-08T03:56:43;95998.19;;;22.97;29.54
79577;BME280;69045;48.136;11.386;2023-10-08T03:59:17;95985.06;;;22.95;29.41
79577;BME280;69045;48.136;11.386;2023-10-08T04:01:58;95987.50;;;22.97;29.40
79577;BME280;69045;48.136;11.386;2023-10-08T04:04:36;95985.63;;;22.92;29.88
79577;BME280;69045;48.136;11.386;2023-10-08T04:07:19;95989.63;;;22.95;29.58
79577;BME280;69045;48.136;11.386;2023-10-08T04:10:07;95991.97;;;23.01;29.18
79577;BME280;69045;48.136;11.386;2023-10-08T04:13:06;95988.47;;;23.06;29.32
79577;BME280;69045;48.136;11.386;2023-10-08T04:15:37;95989.78;;;23.08;29.40
79577;BME280;69045;48.136;11.386;2023-10-08T04:18:08;95989.25;;;23.11;29.52
79577;BME280;69045;48.136;11.386;2023-10-08T04:20:37;95992.94;;;23.15;29.07
79577;BME280;69045;48.136;11.386;2023-10-08T04:23:08;95991.59;;;23.18;29.06
79577;BME280;69045;48.136;11.386;2023-10-08T04:25:41;95991.59;;;23.18;29.05
79577;BME280;69045;48.136;11.386;2023-10-08T04:28:10;95991.59;;;23.18;29.13
79577;BME280;69045;48.136;11.386;2023-10-08T04:30:45;95986.25;;;23.18;29.37
79577;BME280;69045;48.136;11.386;2023-10-08T04:33:18;95992.09;;;23.20;29.25
79577;BME280;69045;48.136;11.386;2023-10-08T04:35:46;95994.78;;;23.20;29.10
79577;BME280;69045;48.136;11.386;2023-10-08T04:38:20;95992.41;;;23.19;29.17
79577;BME280;69045;48.136;11.386;2023-10-08T04:40:50;95987.59;;;23.15;29.41
79577;BME280;69045;48.136;11.386;2023-10-08T04:43:20;95989.19;;;23.16;29.39
79577;BME280;69045;48.136;11.386;2023-10-08T04:45:54;95986.25;;;23.18;29.21
79577;BME280;69045;48.136;11.386;2023-10-08T04:48:24;95983.84;;;23.16;29.19
79577;BME280;69045;48.136;11.386;2023-10-08T04:50:57;95986.00;;;23.14;29.25
79577;BME280;69045;48.136;11.386;2023-10-08T04:53:30;95994.53;;;23.16;29.33
79577;BME280;69045;48.136;11.386;2023-10-08T04:56:05;95999.34;;;23.20;29.12
79577;BME280;69045;48.136;11.386;2023-10-08T04:58:34;96003.59;;;23.21;29.12
79577;BME280;69045;48.136;11.386;2023-10-08T05:01:06;95997.44;;;23.20;29.16
79577;BME280;69045;48.136;11.386;2023-10-08T05:03:47;96008.72;;;23.17;29.24
79577;BME280;69045;48.136;11.386;2023-10-08T05:06:34;96008.47;;;23.13;29.34
79577;BME280;69045;48.136;11.386;2023-10-08T05:09:27;96003.63;;;23.15;29.33
79577;BME280;69045;48.136;11.386;2023-10-08T05:12:12;96012.69;;;23.20;29.29
79577;BME280;69045;48.136;11.386;2023-10-08T05:14:57;96007.06;;;23.21;29.22
79577;BME280;69045;48.136;11.386;2023-10-08T05:17:49;96011.63;;;23.21;29.16
79577;BME280;69045;48.136;11.386;2023-10-08T05:20:40;96008.25;;;23.10;29.15
79577;BME280;69045;48.136;11.386;2023-10-08T05:23:26;96008.88;;;22.92;29.53
79577;BME280;69045;48.136;11.386;2023-10-08T05:26:12;96012.38;;;22.82;29.72
79577;BME280;69045;48.136;11.386;2023-10-08T05:28:47;96007.34;;;22.75;29.46
79577;BME280;69045;48.136;11.386;2023-10-08T05:31:28;96010.06;;;22.70;29.89
79577;BME280;69045;48.136;11.386;2023-10-08T05:34:15;96018.88;;;22.71;29.61
79577;BME280;69045;48.136;11.386;2023-10-08T05:36:45;96025.31;;;22.70;30.06
79577;BME280;69045;48.136;11.386;2023-10-08T05:39:41;96031.94;;;22.72;30.14
79577;BME280;69045;48.136;11.386;2023-10-08T05:42:10;96044.75;;;22.75;29.52
79577;BME280;69045;48.136;11.386;2023-10-08T05:44:44;96049.56;;;22.78;29.20
79577;BME280;69045;48.136;11.386;2023-10-08T05:47:13;96062.63;;;22.90;29.04
79577;BME280;69045;48.136;11.386;2023-10-08T05:50:06;96069.50;;;23.01;28.60
79577;BME280;69045;48.136;11.386;2023-10-08T05:53:05;96076.09;;;23.14;28.99
79577;BME280;69045;48.136;11.386;2023-10-08T05:55:46;96084.41;;;23.12;29.25
79577;BME280;69045;48.136;11.386;2023-10-08T05:58:27;96101.81;;;23.10;29.34
79577;BME280;69045;48.136;11.386;2023-10-08T06:01:12;96112.22;;;23.06;29.67
79577;BME280;69045;48.136;11.386;2023-10-08T06:03:59;96109.28;;;23.08;30.09
79577;BME280;69045;48.136;11.386;2023-10-08T06:06:49;96110.38;;;23.02;30.40
79577;BME280;69045;48.136;11.386;2023-10-08T06:09:39;96116.00;;;23.00;30.19
79577;BME280;69045;48.136;11.386;2023-10-08T06:12:07;96125.63;;;23.01;30.09
79577;BME280;69045;48.136;11.386;2023-10-08T06:14:37;96128.31;;;22.96;30.55
79577;BME280;69045;48.136;11.386;2023-10-08T06:17:36;96124.59;;;22.97;30.50
79577;BME280;69045;48.136;11.386;2023-10-08T06:20:25;96125.88;;;23.05;30.45
79577;BME280;69045;48.136;11.386;2023-10-08T06:22:55;96124.03;;;23.00;30.45
79577;BME280;69045;48.136;11.386;2023-10-08T06:25:30;96124.31;;;22.94;30.89
79577;BME280;69045;48.136;11.386;2023-10-08T06:28:00;96125.69;;;22.86;31.83
79577;BME280;69045;48.136;11.386;2023-10-08T06:30:29;96129.44;;;22.80;31.65
79577;BME280;69045;48.136;11.386;2023-10-08T06:33:02;96129.69;;;22.83;31.26
79577;BME280;69045;48.136;11.386;2023-10-08T06:35:30;96139.31;;;22.90;31.59
79577;BME280;69045;48.136;11.386;2023-10-08T06:38:02;96141.44;;;22.93;31.73
79577;BME280;69045;48.136;11.386;2023-10-08T06:40:34;96129.38;;;22.95;31.60
79577;BME280;69045;48.136;11.386;2023-10-08T06:43:09;96132.31;;;23.04;31.37
79577;BME280;69045;48.136;11.386;2023-10-08T06:45:44;96128.28;;;23.01;31.63
79577;BME280;69045;48.136;11.386;2023-10-08T06:48:14;96122.81;;;23.27;31.22
79577;BME280;69045;48.136;11.386;2023-10-08T06:50:49;96125.56;;;23.61;30.76
79577;BME280;69045;48.136;11.386;2023-10-08T06:53:19;96119.06;;;23.72;30.70
79577;BME280;69045;48.136;11.386;2023-10-08T06:55:49;96122.06;;;23.94;30.39
79577;BME280;69045;48.136;11.386;2023-10-08T06:58:23;96124.94;;;24.32;30.02
79577;BME280;69045;48.136;11.386;2023-10-08T07:00:52;96131.50;;;24.93;29.21
79577;BME280;69045;48.136;11.386;2023-10-08T07:03:22;96128.56;;;25.32;28.30
79577;BME280;69045;48.136;11.386;2023-10-08T07:05:52;96139.25;;;25.56;28.52
79577;BME280;69045;48.136;11.386;2023-10-08T07:08:29;96135.91;;;25.83;27.83
79577;BME280;69045;48.136;11.386;2023-10-08T07:11:00;96137.25;;;26.13;28.01
79577;BME280;69045;48.136;11.386;2023-10-08T07:13:33;96136.03;;;26.38;27.40
79577;BME280;69045;48.136;11.386;2023-10-08T07:16:04;96140.66;;;26.79;27.05
79577;BME280;69045;48.136;11.386;2023-10-08T07:18:35;96139.53;;;26.80;27.22
79577;BME280;69045;48.136;11.386;2023-10-08T07:21:04;96143.72;;;26.86;27.31
79577;BME280;69045;48.136;11.386;2023-10-08T07:23:40;96147.69;;;26.88;27.54
79577;BME280;69045;48.136;11.386;2023-10-08T07:26:25;96137.66;;;26.94;27.65
79577;BME280;69045;48.136;11.386;2023-10-08T07:29:04;96133.66;;;27.19;27.10
79577;BME280;69045;48.136;11.386;2023-10-08T07:31:36;96118.47;;;27.23;27.04
79577;BME280;69045;48.136;11.386;2023-10-08T07:34:07;96121.19;;;26.95;27.46
79577;BME280;69045;48.136;11.386;2023-10-08T07:36:46;96120.44;;;26.67;27.55
79577;BME280;69045;48.136;11.386;2023-10-08T07:39:18;96114.66;;;26.47;28.30
79577;BME280;69045;48.136;11.386;2023-10-08T07:41:53;96104.25;;;26.26;28.50
79577;BME280;69045;48.136;11.386;2023-10-08T07:44:22;96109.59;;;26.12;29.17
79577;BME280;69045;48.136;11.386;2023-10-08T07:46:52;96111.16;;;26.00;29.10
79577;BME280;69045;48.136;11.386;2023-10-08T07:49:21;96105.88;;;25.81;29.18
79577;BME280;69045;48.136;11.386;2023-10-08T07:51:50;96103.47;;;25.61;29.41
79577;BME280;69045;48.136;11.386;2023-10-08T07:54:21;96111.03;;;25.40;29.62
79577;BME280;69045;48.136;11.386;2023-10-08T07:56:51;96119.09;;;25.21;29.79
79577;BME280;69045;48.136;11.386;2023-10-08T07:59:19;96131.34;;;25.03;30.23
79577;BME280;69045;48.136;11.386;2023-10-08T08:01:49;96129.31;;;24.95;30.44
79577;BME280;69045;48.136;11.386;2023-10-08T08:04:19;96127.09;;;24.78;31.19
79577;BME280;69045;48.136;11.386;2023-10-08T08:06:50;96128.59;;;24.65;31.92
79577;BME280;69045;48.136;11.386;2023-10-08T08:09:21;96128.47;;;24.51;32.17
79577;BME280;69045;48.136;11.386;2023-10-08T08:11:50;96131.50;;;24.45;31.94
79577;BME280;69045;48.136;11.386;2023-10-08T08:14:18;96128.34;;;24.38;32.23
79577;BME280;69045;48.136;11.386;2023-10-08T08:16:51;96128.16;;;24.29;32.71
79577;BME280;69045;48.136;11.386;2023-10-08T08:19:20;96130.63;;;24.26;32.76
79577;BME280;69045;48.136;11.386;2023-10-08T08:21:51;96120.47;;;24.22;33.27
79577;BME280;69045;48.136;11.386;2023-10-08T08:24:20;96131.69;;;24.24;33.35
79577;BME280;69045;48.136;11.386;2023-10-08T08:27:03;96128.44;;;24.28;33.49
79577;BME280;69045;48.136;11.386;2023-10-08T08:29:38;96123.38;;;24.26;33.35
79577;BME280;69045;48.136;11.386;2023-10-08T08:32:12;96130.09;;;24.23;33.84
79577;BME280;69045;48.136;11.386;2023-10-08T08:34:42;96134.44;;;24.19;33.89
79577;BME280;69045;48.136;11.386;2023-10-08T08:37:11;96138.69;;;24.20;34.30
79577;BME280;69045;48.136;11.386;2023-10-08T08:39:41;96134.97;;;24.16;33.73
79577;BME280;69045;48.136;11.386;2023-10-08T08:42:09;96148.38;;;24.16;34.35
79577;BME280;69045;48.136;11.386;2023-10-08T08:44:43;96145.69;;;24.16;34.08
79577;BME280;69045;48.136;11.386;2023-10-08T08:47:14;96149.69;;;24.19;34.60
79577;BME280;69045;48.136;11.386;2023-10-08T08:49:45;96151.28;;;24.20;34.54
79577;BME280;69045;48.136;11.386;2023-10-08T08:52:14;96146.94;;;24.24;33.86
79577;BME280;69045;48.136;11.386;2023-10-08T08:54:43;96150.72;;;24.23;33.95
79577;BME280;69045;48.136;11.386;2023-10-08T08:57:14;96139.53;;;24.16;34.18
79577;BME280;69045;48.136;11.386;2023-10-08T08:59:51;96140.13;;;24.13;34.12
79577;BME280;69045;48.136;11.386;2023-10-08T09:02:20;96136.16;;;24.05;34.31
79577;BME280;69045;48.136;11.386;2023-10-08T09:04:49;96131.06;;;24.04;34.19
79577;BME280;69045;48.136;11.386;2023-10-08T09:07:19;96131.88;;;24.04;34.21
79577;BME280;69045;48.136;11.386;2023-10-08T09:09:49;96130.50;;;24.12;34.36
79577;BME280;69045;48.136;11.386;2023-10-08T09:12:20;96119.69;;;24.17;34.31
79577;BME280;69045;48.136;11.386;2023-10-08T09:14:48;96122.13;;;24.18;34.15
79577;BME280;69045;48.136;11.386;2023-10-08T09:17:17;96123.94;;;24.23;34.04
79577;BME280;69045;48.136;11.386;2023-10-08T09:19:45;96129.28;;;24.23;34.13
79577;BME280;69045;48.136;11.386;2023-10-08T09:22:13;96126.09;;;24.21;33.82
79577;BME280;69045;48.136;11.386;2023-10-08T09:24:47;96136.31;;;24.19;34.04
79577;BME280;69045;48.136;11.386;2023-10-08T09:27:18;96132.00;;;24.18;34.14
79577;BME280;69045;48.136;11.386;2023-10-08T09:29:46;96139.78;;;24.19;34.01
79577;BME280;69045;48.136;11.386;2023-10-08T09:32:15;96144.84;;;24.21;33.87
79577;BME280;69045;48.136;11.386;2023-10-08T09:34:52;96141.59;;;24.24;34.15
79577;BME280;69045;48.136;11.386;2023-10-08T09:37:21;96137.38;;;24.18;34.24
79577;BME280;69045;48.136;11.386;2023-10-08T09:39:49;96140.88;;;24.18;34.14
79577;BME280;69045;48.136;11.386;2023-10-08T09:42:21;96148.06;;;24.18;34.70
79577;BME280;69045;48.136;11.386;2023-10-08T09:44:51;96148.31;;;24.21;34.60
79577;BME280;69045;48.136;11.386;2023-10-08T09:47:21;96159.50;;;24.29;34.65
79577;BME280;69045;48.136;11.386;2023-10-08T09:49:56;96163.44;;;24.41;34.80
79577;BME280;69045;48.136;11.386;2023-10-08T09:52:33;96169.19;;;24.54;34.83
79577;BME280;69045;48.136;11.386;2023-10-08T09:55:08;96175.03;;;24.61;34.67
79577;BME280;69045;48.136;11.386;2023-10-08T09:57:39;96177.56;;;24.71;34.54
79577;BME280;69045;48.136;11.386;2023-10-08T10:00:08;96182.84;;;24.81;35.11
79577;BME280;69045;48.136;11.386;2023-10-08T10:02:41;96189.44;;;24.89;35.25
79577;BME280;69045;48.136;11.386;2023-10-08T10:05:11;96189.66;;;24.92;35.06
79577;BME280;69045;48.136;11.386;2023-10-08T10:07:41;96199.78;;;25.00;35.33
79577;BME280;69045;48.136;11.386;2023-10-08T10:10:25;96202.34;;;25.11;35.53
79577;BME280;69045;48.136;11.386;2023-10-08T10:12:58;96204.94;;;25.21;35.02
79577;BME280;69045;48.136;11.386;2023-10-08T10:15:27;96211.53;;;25.28;35.70
79577;BME280;69045;48.136;11.386;2023-10-08T10:18:08;96209.66;;;25.29;35.39
79577;BME280;69045;48.136;11.386;2023-10-08T10:20:39;96208.06;;;25.28;35.55
79577;BME280;69045;48.136;11.386;2023-10-08T10:23:35;96209.13;;;25.27;35.35
79577;BME280;69045;48.136;11.386;2023-10-08T10:26:04;96205.44;;;25.23;35.56
79577;BME280;69045;48.136;11.386;2023-10-08T10:28:37;96213.22;;;25.19;35.02
79577;BME280;69045;48.136;11.386;2023-10-08T10:31:05;96222.16;;;25.15;35.44
79577;BME280;69045;48.136;11.386;2023-10-08T10:33:34;96217.09;;;25.13;35.30
79577;BME280;69045;48.136;11.386;2023-10-08T10:36:07;96214.16;;;25.10;35.15
79577;BME280;69045;48.136;11.386;2023-10-08T10:38:35;96216.34;;;25.08;35.34
79577;BME280;69045;48.136;11.386;2023-10-08T10:41:04;96217.47;;;25.01;35.15
79577;BME280;69045;48.136;11.386;2023-10-08T10:43:37;96215.91;;;24.95;35.36
79577;BME280;69045;48.136;11.386;2023-10-08T10:46:07;96226.47;;;24.87;35.58
79577;BME280;69045;48.136;11.386;2023-10-08T10:48:57;96210.19;;;24.78;36.00
79577;BME280;69045;48.136;11.386;2023-10-08T10:51:47;96212.13;;;24.72;36.54
79577;BME280;69045;48.136;11.386;2023-10-08T10:54:16;96215.09;;;24.71;36.51
79577;BME280;69045;48.136;11.386;2023-10-08T10:56:51;96196.69;;;24.64;36.42
79577;BME280;69045;48.136;11.386;2023-10-08T10:59:32;96208.19;;;24.65;36.48
79577;BME280;69045;48.136;11.386;2023-10-08T11:02:06;96195.09;;;24.63;36.64
79577;BME280;69045;48.136;11.386;2023-10-08T11:04:35;96187.38;;;24.57;36.71
79577;BME280;69045;48.136;11.386;2023-10-08T11:07:15;96189.56;;;24.55;36.29
79577;BME280;69045;48.136;11.386;2023-10-08T11:09:44;96177.25;;;24.54;36.80
79577;BME280;69045;48.136;11.386;2023-10-08T11:12:14;96197.09;;;24.53;36.81
79577;BME280;69045;48.136;11.386;2023-10-08T11:14:51;96184.25;;;24.49;36.79
79577;BME280;69045;48.136;11.386;2023-10-08T11:17:24;96182.66;;;24.48;36.73
79577;BME280;69045;48.136;11.386;2023-10-08T11:19:53;96185.91;;;24.45;36.63
79577;BME280;69045;48.136;11.386;2023-10-08T11:22:21;96184.06;;;24.41;37.19
79577;BME280;69045;48.136;11.386;2023-10-08T11:24:50;96181.69;;;24.39;36.46
79577;BME280;69045;48.136;11.386;2023-10-08T11:27:21;96177.44;;;24.33;36.45
79577;BME280;69045;48.136;11.386;2023-10-08T11:29:58;96180.94;;;24.29;36.76
79577;BME280;69045;48.136;11.386;2023-10-08T11:32:27;96181.50;;;24.26;36.87
79577;BME280;69045;48.136;11.386;2023-10-08T11:34:59;96187.88;;;24.30;37.50
79577;BME280;69045;48.136;11.386;2023-10-08T11:37:29;96186.53;;;24.32;37.10
79577;BME280;69045;48.136;11.386;2023-10-08T11:40:01;96191.34;;;24.35;37.47
79577;BME280;69045;48.136;11.386;2023-10-08T11:42:40;96189.16;;;24.37;37.60
79577;BME280;69045;48.136;11.386;2023-10-08T11:45:12;96181.44;;;24.36;37.48
79577;BME280;69045;48.136;11.386;2023-10-08T11:47:51;96191.84;;;24.37;37.85
79577;BME280;69045;48.136;11.386;2023-10-08T11:50:23;96177.38;;;24.38;37.96
79577;BME280;69045;48.136;11.386;2023-10-08T11:52:58;96181.69;;;24.39;37.54
79577;BME280;69045;48.136;11.386;2023-10-08T11:55:31;96175.78;;;24.37;37.90
79577;BME280;69045;48.136;11.386;2023-10-08T11:58:02;96176.34;;;24.34;37.79
79577;BME280;69045;48.136;11.386;2023-10-08T12:00:39;96177.97;;;24.30;38.07
79577;BME280;69045;48.136;11.386;2023-10-08T12:03:15;96178.25;;;24.29;37.46
79577;BME280;69045;48.136;11.386;2023-10-08T12:05:47;96179.34;;;24.28;37.71
79577;BME280;69045;48.136;11.386;2023-10-08T12:08:19;96183.59;;;24.29;37.42
79577;BME280;69045;48.136;11.386;2023-10-08T12:10:49;96176.66;;;24.28;37.23
79577;BME280;69045;48.136;11.386;2023-10-08T12:13:22;96171.81;;;24.30;38.19
79577;BME280;69045;48.136;11.386;2023-10-08T12:15:53;96172.38;;;24.27;37.65
79577;BME280;69045;48.136;11.386;2023-10-08T12:18:32;96167.81;;;24.27;37.90
79577;BME280;69045;48.136;11.386;2023-10-08T12:21:06;96172.09;;;24.28;37.67
79577;BME280;69045;48.136;11.386;2023-10-08T12:23:38;96172.69;;;24.25;37.59
79577;BME280;69045;48.136;11.386;2023-10-08T12:26:07;96172.59;;;24.30;37.78
79577;BME280;69045;48.136;11.386;2023-10-08T12:28:36;96168.84;;;24.31;38.23
79577;BME280;69045;48.136;11.386;2023-10-08T12:31:05;96173.69;;;24.29;37.31
79577;BME280;69045;48.136;11.386;2023-10-08T12:33:37;96172.38;;;24.27;37.47
79577;BME280;69045;48.136;11.386;2023-10-08T12:36:07;96175.28;;;24.30;37.40
79577;BME280;69045;48.136;11.386;2023-10-08T12:38:40;96169.41;;;24.28;37.29
79577;BME280;69045;48.136;11.386;2023-10-08T12:41:09;96172.38;;;24.27;37.49
79577;BME280;69045;48.136;11.386;2023-10-08T12:43:41;96176.41;;;24.24;37.37
79577;BME280;69045;48.136;11.386;2023-10-08T12:46:13;96169.47;;;24.23;37.57
79577;BME280;69045;48.136;11.386;2023-10-08T12:48:46;96169.50;;;24.18;37.34
79577;BME280;69045;48.136;11.386;2023-10-08T12:51:20;96174.34;;;24.16;37.22
79577;BME280;69045;48.136;11.386;2023-10-08T12:53:52;96175.44;;;24.15;37.82
79577;BME280;69045;48.136;11.386;2023-10-08T12:56:26;96172.00;;;24.09;38.08
79577;BME280;69045;48.136;11.386;2023-10-08T12:59:02;96164.75;;;24.10;38.10
79577;BME280;69045;48.136;11.386;2023-10-08T13:01:38;96159.69;;;24.08;37.99
79577;BME280;69045;48.136;11.386;2023-10-08T13:04:08;96148.97;;;24.08;38.02
79577;BME280;69045;48.136;11.386;2023-10-08T13:06:43;96136.97;;;24.06;37.93
79577;BME280;69045;48.136;11.386;2023-10-08T13:09:14;96123.03;;;24.04;38.13
79577;BME280;69045;48.136;11.386;2023-10-08T13:11:44;96120.16;;;24.00;38.30
79577;BME280;69045;48.136;11.386;2023-10-08T13:14:12;96116.38;;;24.01;38.47
79577;BME280;69045;48.136;11.386;2023-10-08T13:16:42;96121.75;;;24.01;38.24
79577;BME280;69045;48.136;11.386;2023-10-08T13:19:13;96118.78;;;24.03;38.17
79577;BME280;69045;48.136;11.386;2023-10-08T13:21:42;96121.97;;;24.05;38.06